sensor_id;sensor_type;location;lat;lon;timestamp;pressure;altitude;pressure_sealevel;temperature;humidity
70815;BME280;58428;49.478;10.986;2023-07-29T00:02:09;98041.47;;;18.33;100.00
70815;BME280;58428;49.478;10.986;2023-07-29T00:04:35;98041.09;;;18.34;100.00
70815;BME280;58428;49.478;10.986;2023-07-29T00:09:56;98032.06;;;18.27;100.00
70815;BME280;58428;49.478;10.986;2023-07-29T00:12:21;98024.25;;;18.25;100.00
70815;BME280;58428;49.478;10.986;2023-07-29T00:14:47;98024.25;;;18.32;100.00
70815;BME280;58428;49.478;10.986;2023-07-29T00:17:12;98011.72;;;18.28;100.00
70815;BME280;58428;49.478;10.986;2023-07-29T00:19:38;98021.09;;;18.27;100.00
70815;BME280;58428;49.478;10.986;2023-07-29T00:22:04;98019.94;;;18.24;100.00
70815;BME280;58428;49.478;10.986;2023-07-29T00:24:31;98021.50;;;18.25;100.00
70815;BME280;58428;49.478;10.986;2023-07-29T00:26:58;98018.00;;;18.32;100.00
70815;BME280;58428;49.478;10.986;2023-07-29T00:29:24;98018.03;;;18.35;100.00
70815;BME280;58428;49.478;10.986;2023-07-29T00:31:49;98014.09;;;18.36;100.00
70815;BME280;58428;49.478;10.986;2023-07-29T00:34:15;98019.97;;;18.35;100.00
70815;BME280;58428;49.478;10.986;2023-07-29T00:36:45;98021.91;;;18.27;100.00
70815;BME280;58428;49.478;10.986;2023-07-29T00:39:11;98024.25;;;18.25;100.00
70815;BME280;58428;49.478;10.986;2023-07-29T00:41:36;98016.44;;;18.27;100.00
70815;BME280;58428;49.478;10.986;2023-07-29T00:44:03;98008.59;;;18.26;100.00
70815;BME280;58428;49.478;10.986;2023-07-29T00:46:28;98009.78;;;18.28;100.00
70815;BME280;58428;49.478;10.986;2023-07-29T00:48:54;98013.31;;;18.32;100.00
70815;BME280;58428;49.478;10.986;2023-07-29T00:51:20;98018.38;;;18.23;100.00
70815;BME280;58428;49.478;10.986;2023-07-29T00:53:45;98021.09;;;18.27;100.00
70815;BME280;58428;49.478;10.986;2023-07-29T00:56:14;98023.44;;;18.25;100.00
70815;BME280;58428;49.478;10.986;2023-07-29T00:58:41;98019.53;;;18.22;100.00
70815;BME280;58428;49.478;10.986;2023-07-29T01:01:09;98022.63;;;18.17;100.00
70815;BME280;58428;49.478;10.986;2023-07-29T01:03:35;98012.81;;;18.09;100.00
70815;BME280;58428;49.478;10.986;2023-07-29T01:08:47;98013.91;;;18.02;100.00
70815;BME280;58428;49.478;10.986;2023-07-29T01:11:52;98014.69;;;17.99;100.00
70815;BME280;58428;49.478;10.986;2023-07-29T01:16:52;98019.72;;;17.90;100.00
70815;BME280;58428;49.478;10.986;2023-07-29T01:19:43;98022.81;;;17.88;100.00
70815;BME280;58428;49.478;10.986;2023-07-29T01:22:19;98024.38;;;17.86;100.00
70815;BME280;58428;49.478;10.986;2023-07-29T01:24:45;98021.59;;;17.82;100.00
70815;BME280;58428;49.478;10.986;2023-07-29T01:27:11;98020.84;;;17.82;100.00
70815;BME280;58428;49.478;10.986;2023-07-29T01:29:37;98022.34;;;17.76;100.00
70815;BME280;58428;49.478;10.986;2023-07-29T01:32:04;98012.59;;;17.75;100.00
70815;BME280;58428;49.478;10.986;2023-07-29T01:34:41;98019.59;;;17.72;100.00
70815;BME280;58428;49.478;10.986;2023-07-29T01:37:16;98019.19;;;17.70;100.00
70815;BME280;58428;49.478;10.986;2023-07-29T01:39:45;98018.75;;;17.65;100.00
70815;BME280;58428;49.478;10.986;2023-07-29T01:42:11;98012.09;;;17.63;100.00
70815;BME280;58428;49.478;10.986;2023-07-29T01:44:37;98016.00;;;17.65;100.00
70815;BME280;58428;49.478;10.986;2023-07-29T01:47:02;98022.25;;;17.62;100.00
70815;BME280;58428;49.478;10.986;2023-07-29T01:49:28;98020.34;;;17.66;100.00
70815;BME280;58428;49.478;10.986;2023-07-29T01:51:54;98024.19;;;17.58;100.00
70815;BME280;58428;49.478;10.986;2023-07-29T01:54:22;98021.47;;;17.58;100.00
70815;BME280;58428;49.478;10.986;2023-07-29T01:56:48;98015.19;;;17.54;100.00
70815;BME280;58428;49.478;10.986;2023-07-29T01:59:15;98015.94;;;17.55;100.00
70815;BME280;58428;49.478;10.986;2023-07-29T02:01:42;98012.03;;;17.52;100.00
70815;BME280;58428;49.478;10.986;2023-07-29T02:04:07;98011.25;;;17.55;100.00
70815;BME280;58428;49.478;10.986;2023-07-29T02:06:33;98014.38;;;17.50;100.00
70815;BME280;58428;49.478;10.986;2023-07-29T02:08:58;98012.41;;;17.51;100.00
70815;BME280;58428;49.478;10.986;2023-07-29T02:11:25;98010.41;;;17.44;100.00
70815;BME280;58428;49.478;10.986;2023-07-29T02:13:55;98008.81;;;17.43;100.00
70815;BME280;58428;49.478;10.986;2023-07-29T02:16:21;98011.16;;;17.41;100.00
70815;BME280;58428;49.478;10.986;2023-07-29T02:18:48;98003.31;;;17.40;100.00
70815;BME280;58428;49.478;10.986;2023-07-29T02:21:15;97995.91;;;17.37;100.00
70815;BME280;58428;49.478;10.986;2023-07-29T02:23:40;97992.38;;;17.36;100.00
70815;BME280;58428;49.478;10.986;2023-07-29T02:26:06;97989.66;;;17.36;100.00
70815;BME280;58428;49.478;10.986;2023-07-29T02:28:31;97990.84;;;17.39;100.00
70815;BME280;58428;49.478;10.986;2023-07-29T02:31:14;97975.56;;;17.38;100.00
70815;BME280;58428;49.478;10.986;2023-07-29T02:33:40;97975.13;;;17.29;100.00
70815;BME280;58428;49.478;10.986;2023-07-29T02:36:05;97980.19;;;17.27;100.00
70815;BME280;58428;49.478;10.986;2023-07-29T02:38:31;97981.34;;;17.26;100.00
70815;BME280;58428;49.478;10.986;2023-07-29T02:40:56;97968.47;;;17.27;100.00
70815;BME280;58428;49.478;10.986;2023-07-29T02:43:22;97972.75;;;17.24;100.00
70815;BME280;58428;49.478;10.986;2023-07-29T02:45:47;97970.81;;;17.28;100.00
70815;BME280;58428;49.478;10.986;2023-07-29T02:48:12;97964.53;;;17.21;100.00
70815;BME280;58428;49.478;10.986;2023-07-29T02:50:37;97958.66;;;17.22;100.00
70815;BME280;58428;49.478;10.986;2023-07-29T02:53:03;97939.13;;;17.20;100.00
70815;BME280;58428;49.478;10.986;2023-07-29T02:55:28;97950.06;;;17.20;100.00
70815;BME280;58428;49.478;10.986;2023-07-29T02:57:53;97962.81;;;17.06;100.00
70815;BME280;58428;49.478;10.986;2023-07-29T03:00:19;97958.13;;;17.06;100.00
70815;BME280;58428;49.478;10.986;2023-07-29T03:02:45;97955.44;;;17.13;100.00
70815;BME280;58428;49.478;10.986;2023-07-29T03:05:10;97946.84;;;17.11;100.00
70815;BME280;58428;49.478;10.986;2023-07-29T03:07:36;97954.25;;;17.11;100.00
70815;BME280;58428;49.478;10.986;2023-07-29T03:10:01;97959.63;;;17.00;100.00
70815;BME280;58428;49.478;10.986;2023-07-29T03:12:27;97965.88;;;17.01;100.00
70815;BME280;58428;49.478;10.986;2023-07-29T03:14:53;97976.03;;;17.00;100.00
70815;BME280;58428;49.478;10.986;2023-07-29T03:17:20;97980.34;;;17.05;100.00
70815;BME280;58428;49.478;10.986;2023-07-29T03:19:45;97985.41;;;17.03;100.00
70815;BME280;58428;49.478;10.986;2023-07-29T03:22:10;97989.72;;;17.04;100.00
70815;BME280;58428;49.478;10.986;2023-07-29T03:24:36;97982.25;;;16.97;100.00
70815;BME280;58428;49.478;10.986;2023-07-29T03:27:01;97985.00;;;16.97;100.00
70815;BME280;58428;49.478;10.986;2023-07-29T03:29:28;97982.63;;;16.96;100.00
70815;BME280;58428;49.478;10.986;2023-07-29T03:31:53;97985.38;;;16.96;100.00
70815;BME280;58428;49.478;10.986;2023-07-29T03:34:21;97979.50;;;16.94;100.00
70815;BME280;58428;49.478;10.986;2023-07-29T03:36:47;97983.03;;;16.98;100.00
70815;BME280;58428;49.478;10.986;2023-07-29T03:39:14;97983.81;;;16.98;100.00
70815;BME280;58428;49.478;10.986;2023-07-29T03:41:39;97981.53;;;17.04;100.00
70815;BME280;58428;49.478;10.986;2023-07-29T03:44:04;97980.84;;;17.14;100.00
70815;BME280;58428;49.478;10.986;2023-07-29T03:46:31;97980.53;;;17.19;100.00
70815;BME280;58428;49.478;10.986;2023-07-29T03:48:57;97980.13;;;17.20;100.00
70815;BME280;58428;49.478;10.986;2023-07-29T03:51:24;97971.44;;;17.15;100.00
70815;BME280;58428;49.478;10.986;2023-07-29T03:53:50;97971.13;;;17.16;100.00
70815;BME280;58428;49.478;10.986;2023-07-29T03:56:15;97966.13;;;17.25;100.00
70815;BME280;58428;49.478;10.986;2023-07-29T03:58:43;97969.28;;;17.34;100.00
70815;BME280;58428;49.478;10.986;2023-07-29T04:01:09;97956.50;;;17.45;100.00
70815;BME280;58428;49.478;10.986;2023-07-29T04:03:35;97950.28;;;17.51;100.00
70815;BME280;58428;49.478;10.986;2023-07-29T04:06:01;97946.41;;;17.59;100.00
70815;BME280;58428;49.478;10.986;2023-07-29T04:08:28;97942.94;;;17.62;100.00
70815;BME280;58428;49.478;10.986;2023-07-29T04:10:54;97939.44;;;17.68;100.00
70815;BME280;58428;49.478;10.986;2023-07-29T04:13:23;97929.69;;;17.68;100.00
70815;BME280;58428;49.478;10.986;2023-07-29T04:15:49;97935.53;;;17.66;100.00
70815;BME280;58428;49.478;10.986;2023-07-29T04:18:14;97928.09;;;17.67;100.00
70815;BME280;58428;49.478;10.986;2023-07-29T04:20:41;97930.88;;;17.73;100.00
70815;BME280;58428;49.478;10.986;2023-07-29T04:23:06;97939.47;;;17.72;100.00
70815;BME280;58428;49.478;10.986;2023-07-29T04:25:32;97939.41;;;17.65;100.00
70815;BME280;58428;49.478;10.986;2023-07-29T04:27:57;97937.09;;;17.70;100.00
70815;BME280;58428;49.478;10.986;2023-07-29T04:30:24;97938.66;;;17.68;100.00
70815;BME280;58428;49.478;10.986;2023-07-29T04:32:50;97943.38;;;17.71;100.00
70815;BME280;58428;49.478;10.986;2023-07-29T04:35:15;97941.84;;;17.77;100.00
70815;BME280;58428;49.478;10.986;2023-07-29T04:37:40;97936.41;;;17.87;100.00
70815;BME280;58428;49.478;10.986;2023-07-29T04:40:06;97935.31;;;17.99;100.00
70815;BME280;58428;49.478;10.986;2023-07-29T04:42:32;97927.16;;;18.12;100.00
70815;BME280;58428;49.478;10.986;2023-07-29T04:44:59;97920.94;;;18.22;100.00
70815;BME280;58428;49.478;10.986;2023-07-29T04:47:27;97919.03;;;18.33;100.00
70815;BME280;58428;49.478;10.986;2023-07-29T04:49:52;97911.63;;;18.47;100.00
70815;BME280;58428;49.478;10.986;2023-07-29T04:52:19;97917.50;;;18.60;100.00
70815;BME280;58428;49.478;10.986;2023-07-29T04:54:45;97921.03;;;18.64;100.00
70815;BME280;58428;49.478;10.986;2023-07-29T04:57:10;97926.13;;;18.65;100.00
70815;BME280;58428;49.478;10.986;2023-07-29T04:59:37;97911.25;;;18.66;100.00
70815;BME280;58428;49.478;10.986;2023-07-29T05:02:02;97908.53;;;18.66;100.00
70815;BME280;58428;49.478;10.986;2023-07-29T05:04:29;97905.00;;;18.62;100.00
70815;BME280;58428;49.478;10.986;2023-07-29T05:06:58;97902.25;;;18.62;100.00
70815;BME280;58428;49.478;10.986;2023-07-29T05:09:24;97894.03;;;18.62;100.00
70815;BME280;58428;49.478;10.986;2023-07-29T05:11:50;97895.59;;;18.70;100.00
70815;BME280;58428;49.478;10.986;2023-07-29T05:14:18;97896.41;;;18.78;100.00
70815;BME280;58428;49.478;10.986;2023-07-29T05:16:44;97885.41;;;18.84;100.00
70815;BME280;58428;49.478;10.986;2023-07-29T05:19:11;97895.63;;;18.87;100.00
70815;BME280;58428;49.478;10.986;2023-07-29T05:21:37;97896.00;;;18.79;100.00
70815;BME280;58428;49.478;10.986;2023-07-29T05:24:04;97902.25;;;18.83;100.00
70815;BME280;58428;49.478;10.986;2023-07-29T05:26:30;97896.78;;;18.93;100.00
70815;BME280;58428;49.478;10.986;2023-07-29T05:28:56;97894.84;;;19.08;100.00
70815;BME280;58428;49.478;10.986;2023-07-29T05:31:22;97901.50;;;19.17;100.00
70815;BME280;58428;49.478;10.986;2023-07-29T05:33:48;97897.19;;;19.23;100.00
70815;BME280;58428;49.478;10.986;2023-07-29T05:36:13;97907.34;;;19.33;100.00
70815;BME280;58428;49.478;10.986;2023-07-29T05:38:38;97896.78;;;19.38;100.00
70815;BME280;58428;49.478;10.986;2023-07-29T05:41:04;97903.03;;;19.46;100.00
70815;BME280;58428;49.478;10.986;2023-07-29T05:43:31;97899.88;;;19.57;100.00
70815;BME280;58428;49.478;10.986;2023-07-29T05:45:56;97908.47;;;19.63;100.00
70815;BME280;58428;49.478;10.986;2023-07-29T05:48:22;97900.63;;;19.61;100.00
70815;BME280;58428;49.478;10.986;2023-07-29T05:50:47;97901.41;;;19.58;100.00
70815;BME280;58428;49.478;10.986;2023-07-29T05:53:14;97895.94;;;19.58;100.00
70815;BME280;58428;49.478;10.986;2023-07-29T05:55:40;97888.50;;;19.49;100.00
70815;BME280;58428;49.478;10.986;2023-07-29T05:58:05;97895.56;;;19.43;100.00
70815;BME280;58428;49.478;10.986;2023-07-29T06:00:31;97900.69;;;19.41;100.00
70815;BME280;58428;49.478;10.986;2023-07-29T06:02:56;97900.31;;;19.28;100.00
70815;BME280;58428;49.478;10.986;2023-07-29T06:05:22;97898.75;;;19.20;100.00
70815;BME280;58428;49.478;10.986;2023-07-29T06:07:47;97908.97;;;19.17;100.00
70815;BME280;58428;49.478;10.986;2023-07-29T06:10:14;97916.78;;;19.15;100.00
70815;BME280;58428;49.478;10.986;2023-07-29T06:12:47;97912.47;;;19.14;100.00
70815;BME280;58428;49.478;10.986;2023-07-29T06:15:13;97914.81;;;19.25;100.00
70815;BME280;58428;49.478;10.986;2023-07-29T06:17:40;97914.81;;;19.25;100.00
70815;BME280;58428;49.478;10.986;2023-07-29T06:20:06;97916.38;;;19.26;100.00
70815;BME280;58428;49.478;10.986;2023-07-29T06:22:32;97918.72;;;19.31;100.00
70815;BME280;58428;49.478;10.986;2023-07-29T06:24:57;97914.81;;;19.36;100.00
70815;BME280;58428;49.478;10.986;2023-07-29T06:27:24;97914.81;;;19.32;100.00
70815;BME280;58428;49.478;10.986;2023-07-29T06:29:53;97919.50;;;19.18;100.00
70815;BME280;58428;49.478;10.986;2023-07-29T06:32:19;97919.53;;;19.15;100.00
70815;BME280;58428;49.478;10.986;2023-07-29T06:34:44;97914.06;;;19.15;100.00
70815;BME280;58428;49.478;10.986;2023-07-29T06:37:11;97925.00;;;19.28;100.00
70815;BME280;58428;49.478;10.986;2023-07-29T06:39:37;97945.00;;;19.29;100.00
70815;BME280;58428;49.478;10.986;2023-07-29T06:42:02;97960.66;;;19.28;100.00
70815;BME280;58428;49.478;10.986;2023-07-29T06:44:28;97956.34;;;19.17;100.00
70815;BME280;58428;49.478;10.986;2023-07-29T06:46:53;97954.00;;;18.98;100.00
70815;BME280;58428;49.478;10.986;2023-07-29T06:49:19;97944.56;;;18.85;100.00
70815;BME280;58428;49.478;10.986;2023-07-29T06:51:44;97946.91;;;18.80;100.00
70815;BME280;58428;49.478;10.986;2023-07-29T06:54:10;97951.59;;;18.73;100.00
70815;BME280;58428;49.478;10.986;2023-07-29T06:56:35;97951.16;;;18.64;100.00
70815;BME280;58428;49.478;10.986;2023-07-29T06:59:00;97956.25;;;18.55;100.00
70815;BME280;58428;49.478;10.986;2023-07-29T07:01:26;97949.22;;;18.57;100.00
70815;BME280;58428;49.478;10.986;2023-07-29T07:03:51;97951.16;;;18.57;100.00
70815;BME280;58428;49.478;10.986;2023-07-29T07:06:21;97959.00;;;18.55;100.00
70815;BME280;58428;49.478;10.986;2023-07-29T07:08:46;97942.56;;;18.55;100.00
70815;BME280;58428;49.478;10.986;2023-07-29T07:11:13;97948.44;;;18.57;100.00
70815;BME280;58428;49.478;10.986;2023-07-29T07:13:39;97947.28;;;18.65;100.00
70815;BME280;58428;49.478;10.986;2023-07-29T07:16:04;97936.31;;;18.75;100.00
70815;BME280;58428;49.478;10.986;2023-07-29T07:18:29;97935.94;;;18.80;100.00
70815;BME280;58428;49.478;10.986;2023-07-29T07:20:55;97917.53;;;18.84;100.00
70815;BME280;58428;49.478;10.986;2023-07-29T07:23:21;97917.19;;;18.99;100.00
70815;BME280;58428;49.478;10.986;2023-07-29T07:25:46;97915.59;;;19.19;100.00
70815;BME280;58428;49.478;10.986;2023-07-29T07:28:11;97928.91;;;19.27;100.00
70815;BME280;58428;49.478;10.986;2023-07-29T07:30:40;97934.41;;;19.31;100.00
70815;BME280;58428;49.478;10.986;2023-07-29T07:33:09;97927.72;;;19.46;100.00
70815;BME280;58428;49.478;10.986;2023-07-29T07:35:35;97935.53;;;19.57;100.00
70815;BME280;58428;49.478;10.986;2023-07-29T07:38:02;97934.75;;;19.60;100.00
70815;BME280;58428;49.478;10.986;2023-07-29T07:40:31;97942.19;;;19.67;100.00
70815;BME280;58428;49.478;10.986;2023-07-29T07:42:57;97930.78;;;19.72;100.00
70815;BME280;58428;49.478;10.986;2023-07-29T07:45:22;97928.44;;;19.77;100.00
70815;BME280;58428;49.478;10.986;2023-07-29T07:47:47;97926.50;;;19.74;100.00
70815;BME280;58428;49.478;10.986;2023-07-29T07:50:14;97928.44;;;19.74;100.00
70815;BME280;58428;49.478;10.986;2023-07-29T07:52:40;97926.88;;;19.66;100.00
70815;BME280;58428;49.478;10.986;2023-07-29T07:55:06;97932.00;;;19.60;100.00
70815;BME280;58428;49.478;10.986;2023-07-29T07:57:31;97922.59;;;19.58;100.00
70815;BME280;58428;49.478;10.986;2023-07-29T07:59:57;97917.09;;;19.61;100.00
70815;BME280;58428;49.478;10.986;2023-07-29T08:02:22;97918.66;;;19.66;100.00
70815;BME280;58428;49.478;10.986;2023-07-29T08:04:48;97908.50;;;19.59;100.00
70815;BME280;58428;49.478;10.986;2023-07-29T08:07:14;97899.88;;;19.54;100.00
70815;BME280;58428;49.478;10.986;2023-07-29T08:09:39;97889.72;;;19.41;100.00
70815;BME280;58428;49.478;10.986;2023-07-29T08:12:06;97895.22;;;19.23;100.00
70815;BME280;58428;49.478;10.986;2023-07-29T08:14:31;97890.16;;;19.15;100.00
70815;BME280;58428;49.478;10.986;2023-07-29T08:16:57;97901.50;;;19.14;100.00
70815;BME280;58428;49.478;10.986;2023-07-29T08:19:22;97911.31;;;19.11;100.00
70815;BME280;58428;49.478;10.986;2023-07-29T08:21:49;97910.88;;;19.16;100.00
70815;BME280;58428;49.478;10.986;2023-07-29T08:24:15;97927.75;;;19.18;100.00
70815;BME280;58428;49.478;10.986;2023-07-29T08:26:41;97894.81;;;19.18;100.00
70815;BME280;58428;49.478;10.986;2023-07-29T08:29:06;97892.13;;;19.15;100.00
70815;BME280;58428;49.478;10.986;2023-07-29T08:31:32;97888.19;;;19.02;100.00
70815;BME280;58428;49.478;10.986;2023-07-29T08:33:59;97908.53;;;18.94;100.00
70815;BME280;58428;49.478;10.986;2023-07-29T08:36:25;97907.34;;;18.84;100.00
70815;BME280;58428;49.478;10.986;2023-07-29T08:38:50;97904.63;;;18.88;100.00
70815;BME280;58428;49.478;10.986;2023-07-29T08:41:26;97919.47;;;18.87;100.00
70815;BME280;58428;49.478;10.986;2023-07-29T08:44:04;97910.09;;;18.88;100.00
70815;BME280;58428;49.478;10.986;2023-07-29T08:46:32;97916.34;;;18.88;100.00
70815;BME280;58428;49.478;10.986;2023-07-29T08:48:59;97928.09;;;18.89;100.00
70815;BME280;58428;49.478;10.986;2023-07-29T08:51:27;97926.94;;;18.93;100.00
70815;BME280;58428;49.478;10.986;2023-07-29T08:53:54;97931.28;;;19.01;100.00
70815;BME280;58428;49.478;10.986;2023-07-29T08:56:20;97941.47;;;19.08;100.00
70815;BME280;58428;49.478;10.986;2023-07-29T08:58:46;97928.16;;;19.17;100.00
70815;BME280;58428;49.478;10.986;2023-07-29T09:01:12;97931.66;;;19.31;100.00
70815;BME280;58428;49.478;10.986;2023-07-29T09:03:39;97930.47;;;19.35;100.00
70815;BME280;58428;49.478;10.986;2023-07-29T09:06:05;97923.00;;;19.39;100.00
70815;BME280;58428;49.478;10.986;2023-07-29T09:08:31;97922.25;;;19.42;100.00
70815;BME280;58428;49.478;10.986;2023-07-29T09:10:58;97925.75;;;19.53;100.00
70815;BME280;58428;49.478;10.986;2023-07-29T09:13:24;97928.09;;;19.54;100.00
70815;BME280;58428;49.478;10.986;2023-07-29T09:15:53;97944.16;;;19.53;100.00
70815;BME280;58428;49.478;10.986;2023-07-29T09:18:19;97948.88;;;19.55;100.00
70815;BME280;58428;49.478;10.986;2023-07-29T09:20:49;97957.88;;;19.53;100.00
70815;BME280;58428;49.478;10.986;2023-07-29T09:23:16;97962.63;;;19.38;100.00
70815;BME280;58428;49.478;10.986;2023-07-29T09:25:45;97963.38;;;19.35;100.00
70815;BME280;58428;49.478;10.986;2023-07-29T09:28:15;97959.47;;;19.29;100.00
70815;BME280;58428;49.478;10.986;2023-07-29T09:30:42;97954.78;;;19.30;100.00
70815;BME280;58428;49.478;10.986;2023-07-29T09:33:09;97957.94;;;19.32;100.00
70815;BME280;58428;49.478;10.986;2023-07-29T09:35:37;97953.59;;;19.34;100.00
70815;BME280;58428;49.478;10.986;2023-07-29T09:38:04;97954.78;;;19.40;100.00
70815;BME280;58428;49.478;10.986;2023-07-29T09:40:40;97961.44;;;19.50;100.00
70815;BME280;58428;49.478;10.986;2023-07-29T09:43:11;97960.59;;;19.77;100.00
70815;BME280;58428;49.478;10.986;2023-07-29T09:45:37;97969.59;;;19.98;100.00
70815;BME280;58428;49.478;10.986;2023-07-29T09:48:04;97965.19;;;20.21;100.00
70815;BME280;58428;49.478;10.986;2023-07-29T09:50:35;97961.25;;;20.19;100.00
70815;BME280;58428;49.478;10.986;2023-07-29T09:53:01;97956.91;;;20.28;100.00
70815;BME280;58428;49.478;10.986;2023-07-29T09:55:28;97947.81;;;20.45;100.00
70815;BME280;58428;49.478;10.986;2023-07-29T09:57:58;97938.31;;;20.60;100.00
70815;BME280;58428;49.478;10.986;2023-07-29T10:00:28;97937.47;;;20.73;100.00
70815;BME280;58428;49.478;10.986;2023-07-29T10:02:54;97935.81;;;20.82;100.00
70815;BME280;58428;49.478;10.986;2023-07-29T10:05:21;97937.25;;;21.04;100.00
70815;BME280;58428;49.478;10.986;2023-07-29T10:07:48;97937.94;;;21.11;100.00
70815;BME280;58428;49.478;10.986;2023-07-29T10:10:17;97941.22;;;20.96;100.00
70815;BME280;58428;49.478;10.986;2023-07-29T10:12:43;97945.91;;;20.99;100.00
70815;BME280;58428;49.478;10.986;2023-07-29T10:15:10;97939.50;;;21.16;100.00
70815;BME280;58428;49.478;10.986;2023-07-29T10:17:36;97936.56;;;21.37;100.00
70815;BME280;58428;49.478;10.986;2023-07-29T10:20:10;97943.88;;;21.57;100.00
70815;BME280;58428;49.478;10.986;2023-07-29T10:22:46;97942.53;;;22.08;100.00
70815;BME280;58428;49.478;10.986;2023-07-29T10:25:22;97938.25;;;22.37;100.00
70815;BME280;58428;49.478;10.986;2023-07-29T10:28:04;97927.00;;;22.54;100.00
70815;BME280;58428;49.478;10.986;2023-07-29T10:30:30;97919.03;;;22.59;100.00
70815;BME280;58428;49.478;10.986;2023-07-29T10:32:58;97925.34;;;22.30;100.00
70815;BME280;58428;49.478;10.986;2023-07-29T10:35:24;97921.88;;;22.52;100.00
70815;BME280;58428;49.478;10.986;2023-07-29T10:37:53;97915.66;;;22.75;100.00
70815;BME280;58428;49.478;10.986;2023-07-29T10:40:20;97911.41;;;22.96;100.00
70815;BME280;58428;49.478;10.986;2023-07-29T10:43:11;97913.25;;;23.29;100.00
70815;BME280;58428;49.478;10.986;2023-07-29T10:45:39;97915.41;;;23.64;100.00
70815;BME280;58428;49.478;10.986;2023-07-29T10:54:01;97911.44;;;23.65;100.00
70815;BME280;58428;49.478;10.986;2023-07-29T10:56:36;97911.19;;;23.78;100.00
70815;BME280;58428;49.478;10.986;2023-07-29T11:01:39;97895.66;;;24.23;100.00
70815;BME280;58428;49.478;10.986;2023-07-29T11:04:24;97892.47;;;24.24;100.00
70815;BME280;58428;49.478;10.986;2023-07-29T11:12:45;97883.13;;;24.38;100.00
70815;BME280;58428;49.478;10.986;2023-07-29T11:15:12;97895.84;;;24.70;100.00
70815;BME280;58428;49.478;10.986;2023-07-29T11:20:18;97888.56;;;24.76;100.00
70815;BME280;58428;49.478;10.986;2023-07-29T11:22:44;97876.69;;;24.60;100.00
70815;BME280;58428;49.478;10.986;2023-07-29T11:25:12;97881.38;;;24.63;100.00
70815;BME280;58428;49.478;10.986;2023-07-29T11:27:40;97874.63;;;24.64;100.00
70815;BME280;58428;49.478;10.986;2023-07-29T11:30:08;97883.13;;;24.73;100.00
70815;BME280;58428;49.478;10.986;2023-07-29T11:32:35;97879.50;;;24.76;100.00
70815;BME280;58428;49.478;10.986;2023-07-29T11:35:03;97879.84;;;24.77;100.00
70815;BME280;58428;49.478;10.986;2023-07-29T11:37:29;97877.56;;;24.57;100.00
70815;BME280;58428;49.478;10.986;2023-07-29T11:39:54;97878.13;;;24.48;100.00
70815;BME280;58428;49.478;10.986;2023-07-29T11:42:27;97882.84;;;24.83;100.00
70815;BME280;58428;49.478;10.986;2023-07-29T11:44:56;97891.94;;;25.03;100.00
70815;BME280;58428;49.478;10.986;2023-07-29T11:47:21;97887.75;;;24.95;100.00
70815;BME280;58428;49.478;10.986;2023-07-29T11:49:48;97888.50;;;24.79;100.00
70815;BME280;58428;49.478;10.986;2023-07-29T11:52:13;97881.34;;;24.98;100.00
70815;BME280;58428;49.478;10.986;2023-07-29T11:54:39;97861.72;;;25.08;100.00
70815;BME280;58428;49.478;10.986;2023-07-29T11:57:08;97870.81;;;25.09;100.00
70815;BME280;58428;49.478;10.986;2023-07-29T11:59:35;97858.34;;;25.01;100.00
70815;BME280;58428;49.478;10.986;2023-07-29T12:02:02;97855.19;;;24.83;100.00
70815;BME280;58428;49.478;10.986;2023-07-29T12:04:30;97849.34;;;24.97;100.00
70815;BME280;58428;49.478;10.986;2023-07-29T12:06:56;97842.16;;;24.83;100.00
70815;BME280;58428;49.478;10.986;2023-07-29T12:09:22;97834.00;;;24.77;100.00
70815;BME280;58428;49.478;10.986;2023-07-29T12:11:48;97843.06;;;24.61;100.00
70815;BME280;58428;49.478;10.986;2023-07-29T12:14:16;97850.44;;;24.83;100.00
70815;BME280;58428;49.478;10.986;2023-07-29T12:16:44;97845.44;;;24.94;100.00
70815;BME280;58428;49.478;10.986;2023-07-29T12:19:13;97845.28;;;25.01;100.00
70815;BME280;58428;49.478;10.986;2023-07-29T12:21:41;97843.56;;;25.07;100.00
70815;BME280;58428;49.478;10.986;2023-07-29T12:24:07;97845.53;;;25.22;100.00
70815;BME280;58428;49.478;10.986;2023-07-29T12:26:33;97843.41;;;25.42;100.00
70815;BME280;58428;49.478;10.986;2023-07-29T12:28:59;97845.19;;;25.64;100.00
70815;BME280;58428;49.478;10.986;2023-07-29T12:31:32;97834.00;;;25.40;100.00
70815;BME280;58428;49.478;10.986;2023-07-29T12:33:58;97840.66;;;25.42;100.00
70815;BME280;58428;49.478;10.986;2023-07-29T12:36:40;97832.00;;;25.40;100.00
70815;BME280;58428;49.478;10.986;2023-07-29T12:39:05;97834.22;;;25.45;100.00
70815;BME280;58428;49.478;10.986;2023-07-29T12:41:32;97831.94;;;25.56;100.00
70815;BME280;58428;49.478;10.986;2023-07-29T12:43:57;97832.31;;;25.58;100.00
70815;BME280;58428;49.478;10.986;2023-07-29T12:46:29;97838.66;;;25.43;100.00
70815;BME280;58428;49.478;10.986;2023-07-29T12:48:54;97841.84;;;25.41;100.00
70815;BME280;58428;49.478;10.986;2023-07-29T12:51:20;97832.94;;;25.50;100.00
70815;BME280;58428;49.478;10.986;2023-07-29T12:53:45;97829.00;;;25.91;100.00
70815;BME280;58428;49.478;10.986;2023-07-29T12:56:12;97827.66;;;25.95;100.00
70815;BME280;58428;49.478;10.986;2023-07-29T12:58:37;97820.16;;;26.08;100.00
70815;BME280;58428;49.478;10.986;2023-07-29T13:01:04;97820.78;;;25.88;100.00
70815;BME280;58428;49.478;10.986;2023-07-29T13:03:30;97814.88;;;25.73;100.00
70815;BME280;58428;49.478;10.986;2023-07-29T13:05:56;97810.34;;;25.79;100.00